createdAt,value
2019-02-17T00:04:59.591Z,2.81
2019-02-17T00:10:06.390Z,2.76
2019-02-17T00:15:11.497Z,2.96
2019-02-17T00:20:16.234Z,3.20
2019-02-17T00:25:21.287Z,2.97
2019-02-17T00:30:26.272Z,3.16
2019-02-17T00:35:31.516Z,3.35
2019-02-17T00:40:36.331Z,3.23
2019-02-17T00:45:41.801Z,3.45
2019-02-17T00:50:46.533Z,3.11
2019-02-17T00:55:51.477Z,2.80
2019-02-17T01:00:57.895Z,1.90
2019-02-17T01:06:03.115Z,2.91
2019-02-17T01:11:07.965Z,2.81
2019-02-17T01:16:12.906Z,2.50
2019-02-17T01:21:17.655Z,1.66
2019-02-17T01:26:22.390Z,2.51
2019-02-17T01:31:27.442Z,2.87
2019-02-17T01:36:33.194Z,2.98
2019-02-17T01:41:37.952Z,3.18
2019-02-17T01:46:44.231Z,3.24
2019-02-17T01:51:48.867Z,2.65
2019-02-17T01:56:53.714Z,2.46
2019-02-17T02:01:58.661Z,2.61
2019-02-17T02:07:03.302Z,2.56
2019-02-17T02:12:08.045Z,2.28
2019-02-17T02:17:12.789Z,2.42
2019-02-17T02:22:17.425Z,2.10
2019-02-17T02:27:23.774Z,2.15
2019-02-17T02:32:30.170Z,2.17
2019-02-17T02:37:34.930Z,2.46
2019-02-17T02:42:44.274Z,2.61
2019-02-17T02:47:50.843Z,2.43
2019-02-17T02:52:55.195Z,2.40
2019-02-17T02:57:59.847Z,2.37
2019-02-17T03:03:06.472Z,2.31
2019-02-17T03:08:11.170Z,2.12
2019-02-17T03:13:15.909Z,2.02
2019-02-17T03:18:20.521Z,1.84
2019-02-17T03:23:26.057Z,2.28
2019-02-17T03:28:33.209Z,1.88
2019-02-17T03:33:39.284Z,2.21
2019-02-17T03:38:45.354Z,2.22
2019-02-17T03:43:50.705Z,2.13
2019-02-17T03:48:56.068Z,1.95
2019-02-17T03:54:01.938Z,2.03
2019-02-17T03:59:08.010Z,1.89
2019-02-17T04:04:12.648Z,1.73
2019-02-17T04:09:20.461Z,1.83
2019-02-17T04:14:28.178Z,1.49
2019-02-17T04:19:33.733Z,1.44
2019-02-17T04:24:38.314Z,0.77
2019-02-17T04:29:44.070Z,0.88
2019-02-17T04:34:48.789Z,1.36
2019-02-17T04:39:55.162Z,1.69
2019-02-17T04:45:00.891Z,1.59
2019-02-17T04:50:08.649Z,1.38
2019-02-17T04:55:13.281Z,0.65
2019-02-17T05:00:17.928Z,1.16
2019-02-17T05:05:22.560Z,0.70
2019-02-17T05:10:27.308Z,1.77
2019-02-17T05:15:32.967Z,1.86
2019-02-17T05:20:37.713Z,1.45
2019-02-17T05:25:42.965Z,1.70
2019-02-17T05:30:52.814Z,1.24
2019-02-17T05:35:54.195Z,1.75
2019-02-17T05:41:00.468Z,2.09
2019-02-17T05:46:05.312Z,1.67
2019-02-17T05:51:10.057Z,1.51
2019-02-17T05:56:14.800Z,1.20
2019-02-17T06:01:21.705Z,1.12
2019-02-17T06:06:30.662Z,1.23
2019-02-17T06:11:40.277Z,1.73
2019-02-17T06:16:45.444Z,2.20
2019-02-17T06:21:50.184Z,2.54
2019-02-17T06:26:56.066Z,2.66
2019-02-17T06:32:00.904Z,3.14
2019-02-17T06:37:08.304Z,2.84
2019-02-17T06:42:13.255Z,4.10
2019-02-17T06:47:21.068Z,4.62
2019-02-17T06:52:25.706Z,6.87
2019-02-17T06:57:33.459Z,8.25
2019-02-17T07:02:38.673Z,9.05
2019-02-17T07:07:43.654Z,8.74
2019-02-17T07:12:49.041Z,8.10
2019-02-17T07:17:56.486Z,7.65
2019-02-17T07:23:01.556Z,7.20
2019-02-17T07:28:08.130Z,7.06
2019-02-17T07:33:13.942Z,6.52
2019-02-17T07:38:18.934Z,5.53
2019-02-17T07:43:25.520Z,6.15
2019-02-17T07:48:30.401Z,6.18
2019-02-17T07:53:36.053Z,6.10
2019-02-17T07:58:41.193Z,6.38
2019-02-17T08:03:46.492Z,6.48
2019-02-17T08:08:52.792Z,6.53
2019-02-17T08:13:58.804Z,6.87
2019-02-17T08:19:04.792Z,7.37
2019-02-17T08:24:11.059Z,7.60
2019-02-17T08:29:15.786Z,7.44
2019-02-17T08:34:22.061Z,7.65
2019-02-17T08:39:27.626Z,8.21
2019-02-17T08:44:32.583Z,7.78
2019-02-17T08:49:37.424Z,7.58
2019-02-17T08:54:43.805Z,8.70
2019-02-17T08:59:51.114Z,8.83
2019-02-17T09:04:57.543Z,9.25
2019-02-17T09:10:02.570Z,9.41
2019-02-17T09:15:09.802Z,9.41
2019-02-17T09:20:17.858Z,10.17
2019-02-17T09:25:22.598Z,10.50
2019-02-17T09:30:28.487Z,10.78
2019-02-17T09:35:33.320Z,11.17
2019-02-17T09:40:39.814Z,11.01
2019-02-17T09:45:44.651Z,11.97
2019-02-17T09:50:50.519Z,11.50
2019-02-17T09:55:55.868Z,12.56
2019-02-17T10:01:00.729Z,12.76
2019-02-17T10:06:06.277Z,12.38
2019-02-17T10:11:12.305Z,13.04
2019-02-17T10:16:17.018Z,12.94
2019-02-17T10:21:23.273Z,13.13
2019-02-17T10:26:30.678Z,13.81
2019-02-17T10:31:35.506Z,13.40
2019-02-17T10:36:40.264Z,14.01
2019-02-17T10:41:46.122Z,14.19
2019-02-17T10:46:50.987Z,13.64
2019-02-17T10:51:55.738Z,13.90
2019-02-17T10:57:00.785Z,14.52
2019-02-17T11:02:05.514Z,15.24
2019-02-17T11:07:11.901Z,15.47
2019-02-17T11:12:16.642Z,15.16
2019-02-17T11:17:23.641Z,15.50
2019-02-17T11:22:28.889Z,15.33
2019-02-17T11:27:34.847Z,15.78
2019-02-17T11:32:41.244Z,15.15
2019-02-17T11:37:47.735Z,16.10
2019-02-17T11:42:52.578Z,15.58
2019-02-17T11:47:57.323Z,15.15
2019-02-17T11:53:03.701Z,15.09
2019-02-17T11:58:09.795Z,16.43
2019-02-17T12:03:14.724Z,16.17
2019-02-17T12:08:19.680Z,16.49
2019-02-17T12:13:26.465Z,16.98
2019-02-17T12:18:33.561Z,17.08
2019-02-17T12:23:44.040Z,17.31
2019-02-17T12:29:02.557Z,17.89
2019-02-17T12:34:07.216Z,17.49
2019-02-17T12:39:11.893Z,17.31
2019-02-17T12:44:16.738Z,17.67
2019-02-17T12:49:21.642Z,17.58
2019-02-17T12:54:29.377Z,17.82
2019-02-17T12:59:36.271Z,16.99
2019-02-17T13:04:41.786Z,17.36
2019-02-17T13:09:46.496Z,17.14
2019-02-17T13:14:54.820Z,17.13
2019-02-17T13:20:00.996Z,17.32
2019-02-17T13:25:09.038Z,17.91
2019-02-17T13:30:23.335Z,17.60
2019-02-17T13:35:28.408Z,17.85
2019-02-17T13:40:33.183Z,17.49
2019-02-17T13:45:38.650Z,17.76
2019-02-17T13:50:43.404Z,17.80
2019-02-17T13:55:49.283Z,16.13
2019-02-17T14:00:54.619Z,17.57
2019-02-17T14:05:59.927Z,17.95
2019-02-17T14:11:05.067Z,17.81
2019-02-17T14:16:11.411Z,17.83
2019-02-17T14:21:17.946Z,17.77
2019-02-17T14:26:23.304Z,17.65
2019-02-17T14:31:28.632Z,17.28
2019-02-17T14:36:33.937Z,17.30
2019-02-17T14:41:41.383Z,17.23
2019-02-17T14:46:46.902Z,17.20
2019-02-17T14:51:51.880Z,17.08
2019-02-17T14:56:56.924Z,16.96
2019-02-17T15:02:02.284Z,16.89
2019-02-17T15:07:12.017Z,16.85
2019-02-17T15:12:19.045Z,16.67
2019-02-17T15:17:25.019Z,16.64
2019-02-17T15:22:29.877Z,16.41
2019-02-17T15:27:35.861Z,16.21
2019-02-17T15:32:40.688Z,15.98
2019-02-17T15:37:45.632Z,15.78
2019-02-17T15:42:50.373Z,15.52
2019-02-17T15:47:59.835Z,15.07
2019-02-17T15:53:04.995Z,14.64
2019-02-17T15:58:10.281Z,14.33
2019-02-17T16:03:15.308Z,13.88
2019-02-17T16:08:21.664Z,13.73
2019-02-17T16:13:26.517Z,12.95
2019-02-17T16:18:32.514Z,12.91
2019-02-17T16:23:37.443Z,12.57
2019-02-17T16:28:43.717Z,12.43
2019-02-17T16:33:48.461Z,12.11
2019-02-17T16:38:53.454Z,11.68
2019-02-17T16:43:59.789Z,11.22
2019-02-17T16:49:07.701Z,10.96
2019-02-17T16:54:12.811Z,10.46
2019-02-17T16:59:17.607Z,10.17
2019-02-17T17:04:22.963Z,10.09
2019-02-17T17:09:27.902Z,9.69
2019-02-17T17:14:32.743Z,9.44
2019-02-17T17:19:37.972Z,9.22
2019-02-17T17:24:42.952Z,9.66
2019-02-17T17:29:47.801Z,9.89
2019-02-17T17:34:58.823Z,9.39
2019-02-17T17:40:00.214Z,9.25
2019-02-17T17:45:16.101Z,9.31
2019-02-17T17:50:22.464Z,9.33
2019-02-17T17:55:29.535Z,9.33
2019-02-17T18:00:37.152Z,8.63
2019-02-17T18:05:41.887Z,8.67
2019-02-17T18:10:46.834Z,7.76
2019-02-17T18:15:51.804Z,8.14
2019-02-17T18:20:56.842Z,8.29
2019-02-17T18:26:01.579Z,8.27
2019-02-17T18:31:06.518Z,7.62
2019-02-17T18:36:11.510Z,7.77
2019-02-17T18:41:16.299Z,7.45
2019-02-17T18:46:20.971Z,7.58
2019-02-17T18:51:26.533Z,7.91
2019-02-17T18:56:32.038Z,8.14
2019-02-17T19:01:36.852Z,8.16
2019-02-17T19:06:42.588Z,7.77
2019-02-17T19:11:47.535Z,6.55
2019-02-17T19:16:52.487Z,7.44
2019-02-17T19:21:58.511Z,7.05
2019-02-17T19:27:03.278Z,6.85
2019-02-17T19:32:10.637Z,7.18
2019-02-17T19:37:15.692Z,6.78
2019-02-17T19:42:20.613Z,6.64
2019-02-17T19:47:27.207Z,6.62
2019-02-17T19:52:33.783Z,6.64
2019-02-17T19:57:40.477Z,6.35
2019-02-17T20:02:50.116Z,6.13
2019-02-17T20:07:54.785Z,5.48
2019-02-17T20:12:59.810Z,5.61
2019-02-17T20:18:04.446Z,6.24
2019-02-17T20:23:09.192Z,6.33
2019-02-17T20:28:13.830Z,6.53
2019-02-17T20:33:18.785Z,6.30
2019-02-17T20:38:24.110Z,6.48
2019-02-17T20:43:30.212Z,6.40
2019-02-17T20:48:36.484Z,5.84
2019-02-17T20:53:41.259Z,5.53
2019-02-17T20:58:47.609Z,5.47
2019-02-17T21:03:53.170Z,4.77
2019-02-17T21:08:58.478Z,4.49
2019-02-17T21:14:03.588Z,5.23
2019-02-17T21:19:08.220Z,4.83
2019-02-17T21:24:14.399Z,5.20
2019-02-17T21:29:19.242Z,5.24
2019-02-17T21:34:24.291Z,5.14
2019-02-17T21:39:29.853Z,4.86
2019-02-17T21:44:35.546Z,4.47
2019-02-17T21:49:40.367Z,4.60
2019-02-17T21:54:45.113Z,4.66
2019-02-17T21:59:49.849Z,3.56
2019-02-17T22:04:54.693Z,4.19
2019-02-17T22:10:00.758Z,4.21
2019-02-17T22:15:09.480Z,4.49
2019-02-17T22:20:15.001Z,4.80
2019-02-17T22:25:19.917Z,4.53
2019-02-17T22:30:24.656Z,4.85
2019-02-17T22:35:29.395Z,4.76
2019-02-17T22:40:34.149Z,3.80
2019-02-17T22:45:38.876Z,4.09
2019-02-17T22:50:43.727Z,4.63
2019-02-17T22:55:48.578Z,4.38
2019-02-17T23:01:03.544Z,4.50
2019-02-17T23:06:09.931Z,4.37
2019-02-17T23:11:15.083Z,4.63
2019-02-17T23:16:19.867Z,4.82
2019-02-17T23:21:24.680Z,4.56
2019-02-17T23:26:29.426Z,4.67
2019-02-17T23:31:35.177Z,4.53
2019-02-17T23:36:40.128Z,4.45
2019-02-17T23:41:44.877Z,4.21
2019-02-17T23:46:49.523Z,4.13
2019-02-17T23:51:54.357Z,3.83
2019-02-17T23:57:00.430Z,3.93
